createdAt,value
2019-06-01T00:00:11.298Z,18.20
2019-06-01T00:02:35.678Z,18.27
2019-06-01T00:05:07.634Z,18.27
2019-06-01T00:07:35.926Z,18.24
2019-06-01T00:10:06.136Z,18.08
2019-06-01T00:12:34.445Z,18.06
2019-06-01T00:15:03.490Z,18.10
2019-06-01T00:17:31.785Z,18.09
2019-06-01T00:20:01.505Z,18.08
2019-06-01T00:22:29.764Z,18.03
2019-06-01T00:24:58.104Z,17.96
2019-06-01T00:27:26.394Z,18.01
2019-06-01T00:29:54.729Z,18.01
2019-06-01T00:32:23.064Z,17.93
2019-06-01T00:34:51.885Z,17.90
2019-06-01T00:37:20.391Z,17.74
2019-06-01T00:39:49.877Z,17.64
2019-06-01T00:42:18.904Z,17.75
2019-06-01T00:44:48.460Z,17.78
2019-06-01T00:47:16.955Z,17.66
2019-06-01T00:49:45.265Z,17.67
2019-06-01T00:52:13.588Z,17.66
2019-06-01T00:54:43.094Z,17.63
2019-06-01T00:57:11.584Z,17.57
2019-06-01T00:59:39.872Z,17.48
2019-06-01T01:02:08.358Z,17.47
2019-06-01T01:04:36.647Z,17.47
2019-06-01T01:07:05.177Z,17.38
2019-06-01T01:09:33.481Z,17.40
2019-06-01T01:12:01.808Z,17.38
2019-06-01T01:14:33.460Z,17.35
2019-06-01T01:17:01.763Z,17.27
2019-06-01T01:19:30.121Z,17.30
2019-06-01T01:21:59.003Z,17.30
2019-06-01T01:24:27.357Z,17.25
2019-06-01T01:26:56.811Z,17.24
2019-06-01T01:29:25.299Z,17.20
2019-06-01T01:31:53.625Z,17.11
2019-06-01T01:34:21.990Z,17.12
2019-06-01T01:36:50.320Z,17.09
2019-06-01T01:39:18.665Z,17.08
2019-06-01T01:41:48.016Z,17.06
2019-06-01T01:44:16.334Z,16.99
2019-06-01T01:46:44.905Z,16.95
2019-06-01T01:49:13.189Z,16.91
2019-06-01T01:51:41.612Z,16.88
2019-06-01T01:54:09.998Z,16.85
2019-06-01T01:56:38.340Z,16.67
2019-06-01T01:59:06.660Z,16.58
2019-06-01T02:01:34.938Z,16.74
2019-06-01T02:04:03.460Z,16.78
2019-06-01T02:06:31.743Z,16.78
2019-06-01T02:09:01.756Z,16.78
2019-06-01T02:11:30.292Z,16.70
2019-06-01T02:13:59.779Z,16.62
2019-06-01T02:16:28.303Z,16.68
2019-06-01T02:18:57.505Z,16.66
2019-06-01T02:21:26.623Z,16.62
2019-06-01T02:23:55.034Z,16.58
2019-06-01T02:26:23.327Z,16.36
2019-06-01T02:28:53.124Z,16.39
2019-06-01T02:31:37.455Z,16.29
2019-06-01T02:33:51.573Z,16.27
2019-06-01T02:36:19.868Z,16.34
2019-06-01T02:38:48.286Z,16.31
2019-06-01T02:41:16.894Z,16.36
2019-06-01T02:43:45.418Z,16.39
2019-06-01T02:46:13.703Z,16.39
2019-06-01T02:48:42.012Z,16.38
2019-06-01T02:51:10.375Z,16.32
2019-06-01T02:53:38.683Z,16.29
2019-06-01T02:56:07.052Z,16.27
2019-06-01T02:58:35.667Z,16.26
2019-06-01T03:01:13.167Z,16.25
2019-06-01T03:03:42.142Z,16.22
2019-06-01T03:06:12.719Z,16.17
2019-06-01T03:08:41.946Z,16.14
2019-06-01T03:11:11.836Z,16.11
2019-06-01T03:13:40.493Z,16.07
2019-06-01T03:16:10.064Z,16.05
2019-06-01T03:18:39.939Z,15.86
2019-06-01T03:21:09.299Z,15.92
2019-06-01T03:23:39.127Z,15.93
2019-06-01T03:26:08.774Z,15.91
2019-06-01T03:28:40.171Z,15.89
2019-06-01T03:31:10.487Z,15.89
2019-06-01T03:33:38.652Z,15.86
2019-06-01T03:36:07.115Z,15.79
2019-06-01T03:38:35.486Z,15.65
2019-06-01T03:41:04.206Z,15.74
2019-06-01T03:43:32.624Z,15.81
2019-06-01T03:46:02.478Z,15.84
2019-06-01T03:48:30.973Z,15.82
2019-06-01T03:50:59.366Z,15.73
2019-06-01T03:53:27.682Z,15.81
2019-06-01T03:55:55.991Z,15.84
2019-06-01T03:58:24.342Z,15.85
2019-06-01T04:00:52.658Z,15.88
2019-06-01T04:03:21.111Z,15.85
2019-06-01T04:05:49.595Z,15.89
2019-06-01T04:08:17.878Z,15.79
2019-06-01T04:10:46.227Z,15.86
2019-06-01T04:13:14.527Z,15.83
2019-06-01T04:15:42.985Z,15.83
2019-06-01T04:18:13.916Z,15.77
2019-06-01T04:20:42.267Z,15.84
2019-06-01T04:23:10.779Z,15.94
2019-06-01T04:25:39.138Z,15.96
2019-06-01T04:28:10.285Z,15.86
2019-06-01T04:30:38.684Z,15.85
2019-06-01T04:33:07.078Z,15.99
2019-06-01T04:35:35.491Z,16.00
2019-06-01T04:38:05.009Z,16.10
2019-06-01T04:40:33.459Z,16.21
2019-06-01T04:43:01.801Z,16.24
2019-06-01T04:45:30.102Z,16.33
2019-06-01T04:47:58.483Z,16.38
2019-06-01T04:50:26.842Z,16.37
2019-06-01T04:52:55.166Z,16.38
2019-06-01T04:55:23.451Z,16.45
2019-06-01T04:57:51.784Z,16.46
2019-06-01T05:00:27.252Z,16.52
2019-06-01T05:03:04.477Z,16.48
2019-06-01T05:05:20.527Z,16.48
2019-06-01T05:07:48.926Z,16.63
2019-06-01T05:10:17.309Z,16.68
2019-06-01T05:12:45.992Z,16.78
2019-06-01T05:15:16.703Z,16.77
2019-06-01T05:17:45.075Z,16.84
2019-06-01T05:20:16.611Z,16.97
2019-06-01T05:22:45.023Z,16.96
2019-06-01T05:25:13.731Z,16.98
2019-06-01T05:27:43.553Z,17.00
2019-06-01T05:30:13.686Z,17.07
2019-06-01T05:32:42.201Z,17.08
2019-06-01T05:35:11.788Z,17.15
2019-06-01T05:37:40.530Z,17.18
2019-06-01T05:40:12.746Z,17.21
2019-06-01T05:42:41.033Z,17.34
2019-06-01T05:45:11.275Z,17.49
2019-06-01T05:47:40.052Z,17.45
2019-06-01T05:50:08.749Z,17.52
2019-06-01T05:52:37.364Z,17.57
2019-06-01T05:55:06.814Z,17.58
2019-06-01T05:57:35.116Z,17.63
2019-06-01T06:00:05.615Z,17.68
2019-06-01T06:02:34.009Z,17.73
2019-06-01T06:05:02.345Z,17.74
2019-06-01T06:07:30.650Z,17.88
2019-06-01T06:09:58.995Z,18.05
2019-06-01T06:12:27.389Z,18.18
2019-06-01T06:14:55.701Z,18.38
2019-06-01T06:17:24.536Z,18.56
2019-06-01T06:19:53.077Z,18.72
2019-06-01T06:22:22.406Z,18.93
2019-06-01T06:24:51.110Z,18.90
2019-06-01T06:27:20.626Z,19.00
2019-06-01T06:29:49.107Z,19.17
2019-06-01T06:32:17.485Z,19.51
2019-06-01T06:34:45.780Z,19.84
2019-06-01T06:37:14.107Z,20.17
2019-06-01T06:39:42.424Z,20.41
2019-06-01T06:42:10.928Z,20.62
2019-06-01T06:44:39.248Z,20.73
2019-06-01T06:47:07.589Z,20.86
2019-06-01T06:49:36.047Z,20.97
2019-06-01T06:52:04.533Z,21.15
2019-06-01T06:54:32.972Z,21.32
2019-06-01T06:57:01.384Z,21.47
2019-06-01T06:59:29.664Z,21.66
2019-06-01T07:01:58.073Z,21.79
2019-06-01T07:04:27.493Z,21.96
2019-06-01T07:06:55.997Z,21.97
2019-06-01T07:09:24.392Z,21.94
2019-06-01T07:11:52.789Z,22.01
2019-06-01T07:14:21.310Z,22.08
2019-06-01T07:16:49.703Z,22.06
2019-06-01T07:19:17.977Z,22.17
2019-06-01T07:21:46.540Z,22.24
2019-06-01T07:24:14.932Z,22.34
2019-06-01T07:26:43.344Z,22.48
2019-06-01T07:29:11.605Z,22.45
2019-06-01T07:31:39.918Z,22.40
2019-06-01T07:34:08.276Z,22.39
2019-06-01T07:36:36.700Z,22.53
2019-06-01T07:39:06.865Z,22.67
2019-06-01T07:41:35.276Z,22.78
2019-06-01T07:44:04.396Z,22.86
2019-06-01T07:46:33.236Z,22.92
2019-06-01T07:49:01.771Z,23.03
2019-06-01T07:51:31.568Z,22.93
2019-06-01T07:54:00.113Z,22.83
2019-06-01T07:56:28.717Z,22.88
2019-06-01T07:58:57.053Z,22.98
2019-06-01T08:01:27.139Z,23.12
2019-06-01T08:03:55.557Z,23.21
2019-06-01T08:06:25.690Z,23.31
2019-06-01T08:08:54.106Z,23.35
2019-06-01T08:11:25.492Z,23.40
2019-06-01T08:13:52.884Z,23.56
2019-06-01T08:16:21.425Z,23.61
2019-06-01T08:18:53.075Z,23.79
2019-06-01T08:21:20.076Z,23.86
2019-06-01T08:23:48.394Z,23.93
2019-06-01T08:26:19.963Z,24.11
2019-06-01T08:28:46.825Z,24.27
2019-06-01T08:31:15.185Z,24.29
2019-06-01T08:33:43.531Z,24.45
2019-06-01T08:36:11.830Z,24.65
2019-06-01T08:38:40.151Z,24.87
2019-06-01T08:41:08.525Z,25.07
2019-06-01T08:43:36.907Z,25.35
2019-06-01T08:46:05.308Z,25.56
2019-06-01T08:48:34.099Z,25.77
2019-06-01T08:51:02.671Z,25.97
2019-06-01T08:53:32.168Z,26.00
2019-06-01T08:56:00.793Z,26.15
2019-06-01T08:58:30.138Z,26.24
2019-06-01T09:00:58.653Z,26.35
2019-06-01T09:03:27.744Z,26.25
2019-06-01T09:05:56.301Z,26.43
2019-06-01T09:08:26.004Z,26.54
2019-06-01T09:10:56.126Z,26.55
2019-06-01T09:13:25.119Z,26.64
2019-06-01T09:15:53.511Z,26.74
2019-06-01T09:18:21.787Z,26.79
2019-06-01T09:20:50.173Z,26.46
2019-06-01T09:23:18.613Z,26.33
2019-06-01T09:25:46.934Z,26.40
2019-06-01T09:28:15.210Z,26.65
2019-06-01T09:30:43.912Z,26.76
2019-06-01T09:33:12.268Z,26.73
2019-06-01T09:35:54.228Z,26.64
2019-06-01T09:38:10.652Z,26.83
2019-06-01T09:40:39.043Z,27.06
2019-06-01T09:43:07.493Z,27.22
2019-06-01T09:45:36.348Z,27.21
2019-06-01T09:48:05.260Z,27.17
2019-06-01T09:50:33.580Z,27.05
2019-06-01T09:53:01.901Z,27.02
2019-06-01T09:55:31.382Z,27.05
2019-06-01T09:58:00.379Z,27.06
2019-06-01T10:00:28.759Z,27.18
2019-06-01T10:02:57.060Z,27.49
2019-06-01T10:05:25.415Z,27.67
2019-06-01T10:07:53.734Z,27.79
2019-06-01T10:10:22.095Z,27.73
2019-06-01T10:12:50.442Z,27.72
2019-06-01T10:15:18.849Z,27.79
2019-06-01T10:17:47.234Z,27.72
2019-06-01T10:20:16.205Z,27.63
2019-06-01T10:22:44.494Z,27.68
2019-06-01T10:25:12.928Z,27.87
2019-06-01T10:27:42.759Z,28.14
2019-06-01T10:30:13.101Z,28.40
2019-06-01T10:32:42.164Z,28.55
2019-06-01T10:35:10.568Z,28.82
2019-06-01T10:37:39.697Z,28.97
2019-06-01T10:40:08.349Z,29.08
2019-06-01T10:42:38.098Z,29.14
2019-06-01T10:45:07.039Z,28.90
2019-06-01T10:47:36.033Z,28.80
2019-06-01T10:50:06.297Z,28.72
2019-06-01T10:52:36.092Z,28.39
2019-06-01T10:55:06.249Z,28.21
2019-06-01T10:57:34.750Z,28.32
2019-06-01T11:00:04.214Z,28.62
2019-06-01T11:02:32.622Z,28.70
2019-06-01T11:05:00.918Z,28.88
2019-06-01T11:07:29.463Z,29.12
2019-06-01T11:09:57.810Z,29.27
2019-06-01T11:12:26.118Z,29.30
2019-06-01T11:14:54.550Z,29.42
2019-06-01T11:17:22.975Z,29.22
2019-06-01T11:19:51.279Z,28.95
2019-06-01T11:22:19.831Z,28.93
2019-06-01T11:24:48.205Z,28.88
2019-06-01T11:27:16.574Z,28.77
2019-06-01T11:29:50.969Z,28.94
2019-06-01T11:32:15.105Z,29.26
2019-06-01T11:34:44.507Z,29.27
2019-06-01T11:37:15.444Z,29.31
2019-06-01T11:39:43.018Z,29.01
2019-06-01T11:42:11.417Z,28.93
2019-06-01T11:44:40.711Z,28.94
2019-06-01T11:47:09.074Z,29.34
2019-06-01T11:49:38.630Z,29.83
2019-06-01T11:52:07.060Z,30.10
2019-06-01T11:54:35.461Z,30.32
2019-06-01T11:57:04.065Z,30.36
2019-06-01T11:59:32.476Z,30.25
2019-06-01T12:02:00.874Z,30.28
2019-06-01T12:04:29.274Z,30.53
2019-06-01T12:07:13.700Z,30.78
2019-06-01T12:09:27.615Z,30.96
2019-06-01T12:11:55.907Z,31.23
2019-06-01T12:14:24.319Z,31.50
2019-06-01T12:16:52.594Z,31.57
2019-06-01T12:19:21.211Z,31.20
2019-06-01T12:21:49.590Z,31.31
2019-06-01T12:24:17.979Z,31.33
2019-06-01T12:26:47.499Z,31.17
2019-06-01T12:29:15.995Z,30.98
2019-06-01T12:31:44.332Z,30.94
2019-06-01T12:34:12.704Z,31.08
2019-06-01T12:36:42.574Z,31.14
2019-06-01T12:39:11.062Z,31.12
2019-06-01T12:41:39.781Z,31.10
2019-06-01T12:44:09.953Z,31.08
2019-06-01T12:46:39.676Z,30.98
2019-06-01T12:49:08.261Z,30.65
2019-06-01T12:51:36.658Z,30.38
2019-06-01T12:54:09.547Z,30.24
2019-06-01T12:56:37.949Z,30.51
2019-06-01T12:59:06.304Z,31.09
2019-06-01T13:01:34.712Z,31.58
2019-06-01T13:04:03.184Z,31.94
2019-06-01T13:06:31.566Z,32.34
2019-06-01T13:08:59.950Z,32.57
2019-06-01T13:11:28.358Z,32.87
2019-06-01T13:13:56.753Z,32.88
2019-06-01T13:16:25.254Z,32.24
2019-06-01T13:18:53.920Z,32.27
2019-06-01T13:21:22.421Z,32.33
2019-06-01T13:23:51.606Z,32.27
2019-06-01T13:26:19.967Z,31.87
2019-06-01T13:28:48.376Z,31.65
2019-06-01T13:31:16.682Z,31.79
2019-06-01T13:33:46.373Z,31.61
2019-06-01T13:36:14.745Z,31.40
2019-06-01T13:38:43.071Z,31.38
2019-06-01T13:41:11.559Z,31.37
2019-06-01T13:43:39.925Z,31.45
2019-06-01T13:46:08.209Z,31.84
2019-06-01T13:48:36.599Z,31.84
2019-06-01T13:51:05.042Z,31.84
2019-06-01T13:53:33.429Z,31.53
2019-06-01T13:56:01.731Z,31.37
2019-06-01T13:58:30.071Z,31.68
2019-06-01T14:00:58.449Z,31.21
2019-06-01T14:03:26.894Z,30.95
2019-06-01T14:05:55.443Z,31.10
2019-06-01T14:08:29.036Z,31.35
2019-06-01T14:10:53.857Z,31.72
2019-06-01T14:13:22.205Z,31.98
2019-06-01T14:15:51.569Z,32.07
2019-06-01T14:18:20.148Z,31.84
2019-06-01T14:20:49.654Z,31.65
2019-06-01T14:23:18.288Z,31.53
2019-06-01T14:25:46.588Z,31.45
2019-06-01T14:28:14.910Z,31.40
2019-06-01T14:30:43.290Z,31.26
2019-06-01T14:33:11.580Z,31.24
2019-06-01T14:35:40.027Z,31.38
2019-06-01T14:38:08.408Z,31.67
2019-06-01T14:40:36.737Z,31.82
2019-06-01T14:43:05.104Z,31.78
2019-06-01T14:45:33.524Z,31.39
2019-06-01T14:48:01.851Z,31.09
2019-06-01T14:50:30.243Z,30.94
2019-06-01T14:52:58.608Z,31.13
2019-06-01T14:55:27.005Z,31.10
2019-06-01T14:57:56.008Z,30.87
2019-06-01T15:00:24.388Z,30.85
2019-06-01T15:02:52.762Z,30.81
2019-06-01T15:05:21.156Z,30.64
2019-06-01T15:07:50.161Z,30.37
2019-06-01T15:10:18.916Z,30.19
2019-06-01T15:12:51.542Z,30.15
2019-06-01T15:15:17.535Z,30.33
2019-06-01T15:17:45.904Z,30.29
2019-06-01T15:20:14.566Z,30.47
2019-06-01T15:22:42.994Z,30.43
2019-06-01T15:25:11.581Z,30.05
2019-06-01T15:27:39.986Z,29.98
2019-06-01T15:30:12.549Z,30.02
2019-06-01T15:32:40.906Z,30.07
2019-06-01T15:35:09.791Z,30.11
2019-06-01T15:37:38.230Z,30.01
2019-06-01T15:40:10.432Z,29.87
2019-06-01T15:42:38.864Z,29.41
2019-06-01T15:45:07.951Z,29.31
2019-06-01T15:47:36.429Z,29.17
2019-06-01T15:50:07.612Z,29.08
2019-06-01T15:52:36.018Z,29.21
2019-06-01T15:55:06.027Z,29.13
2019-06-01T15:57:34.758Z,29.00
2019-06-01T16:00:04.999Z,28.96
2019-06-01T16:02:33.411Z,28.86
2019-06-01T16:05:01.698Z,28.85
2019-06-01T16:07:30.101Z,28.85
2019-06-01T16:09:59.378Z,28.83
2019-06-01T16:12:27.923Z,28.77
2019-06-01T16:14:57.587Z,28.73
2019-06-01T16:17:26.065Z,28.79
2019-06-01T16:19:55.780Z,28.75
2019-06-01T16:22:24.343Z,28.76
2019-06-01T16:24:53.971Z,28.77
2019-06-01T16:27:22.461Z,28.79
2019-06-01T16:29:50.829Z,28.79
2019-06-01T16:32:19.128Z,28.82
2019-06-01T16:34:47.561Z,28.89
2019-06-01T16:37:15.932Z,28.97
2019-06-01T16:39:58.259Z,29.07
2019-06-01T16:42:14.374Z,29.15
2019-06-01T16:44:42.714Z,29.25
2019-06-01T16:47:11.113Z,29.27
2019-06-01T16:49:39.488Z,29.19
2019-06-01T16:52:07.860Z,29.02
2019-06-01T16:54:36.227Z,28.86
2019-06-01T16:57:05.329Z,28.80
2019-06-01T16:59:33.854Z,28.70
2019-06-01T17:02:03.393Z,28.62
2019-06-01T17:04:31.840Z,28.59
2019-06-01T17:07:00.694Z,28.57
2019-06-01T17:09:29.190Z,28.51
2019-06-01T17:11:58.677Z,28.39
2019-06-01T17:14:27.156Z,28.32
2019-06-01T17:16:57.081Z,28.22
2019-06-01T17:19:25.566Z,28.20
2019-06-01T17:21:53.990Z,28.16
2019-06-01T17:24:22.391Z,28.12
2019-06-01T17:26:50.766Z,28.13
2019-06-01T17:29:19.090Z,28.13
2019-06-01T17:31:54.443Z,28.10
2019-06-01T17:34:17.594Z,28.05
2019-06-01T17:36:45.963Z,27.99
2019-06-01T17:39:14.751Z,27.94
2019-06-01T17:41:43.138Z,27.90
2019-06-01T17:44:11.447Z,27.87
2019-06-01T17:46:53.025Z,27.85
2019-06-01T17:49:09.887Z,27.84
2019-06-01T17:51:38.173Z,27.87
2019-06-01T17:54:08.034Z,27.82
2019-06-01T17:56:36.762Z,27.84
2019-06-01T17:59:05.482Z,27.87
2019-06-01T18:01:33.811Z,27.87
2019-06-01T18:04:02.170Z,27.86
2019-06-01T18:06:30.593Z,27.72
2019-06-01T18:08:58.909Z,27.58
2019-06-01T18:11:27.399Z,27.45
2019-06-01T18:13:55.734Z,27.39
2019-06-01T18:16:24.140Z,27.31
2019-06-01T18:18:52.436Z,27.25
2019-06-01T18:21:20.902Z,27.23
2019-06-01T18:23:49.426Z,27.21
2019-06-01T18:26:17.747Z,27.22
2019-06-01T18:28:46.113Z,27.23
2019-06-01T18:31:20.316Z,27.23
2019-06-01T18:33:48.689Z,27.22
2019-06-01T18:36:17.020Z,27.20
2019-06-01T18:38:45.312Z,27.20
2019-06-01T18:41:18.376Z,27.19
2019-06-01T18:43:43.858Z,27.14
2019-06-01T18:46:12.483Z,27.08
2019-06-01T18:48:40.865Z,27.00
2019-06-01T18:51:10.133Z,26.93
2019-06-01T18:53:38.834Z,26.84
2019-06-01T18:56:08.155Z,26.78
2019-06-01T18:58:36.622Z,26.73
2019-06-01T19:01:06.379Z,26.70
2019-06-01T19:03:34.960Z,26.68
2019-06-01T19:06:03.294Z,26.65
2019-06-01T19:08:31.597Z,26.59
2019-06-01T19:10:59.999Z,26.55
2019-06-01T19:13:28.292Z,26.50
2019-06-01T19:15:56.875Z,26.44
2019-06-01T19:18:25.183Z,26.39
2019-06-01T19:20:53.594Z,26.32
2019-06-01T19:23:22.981Z,26.27
2019-06-01T19:25:51.490Z,26.18
2019-06-01T19:28:19.839Z,26.07
2019-06-01T19:30:48.325Z,26.02
2019-06-01T19:33:18.937Z,25.99
2019-06-01T19:35:46.732Z,25.92
2019-06-01T19:38:15.584Z,25.86
2019-06-01T19:40:44.083Z,25.80
2019-06-01T19:43:13.468Z,25.71
2019-06-01T19:45:41.827Z,25.65
2019-06-01T19:48:10.312Z,25.57
2019-06-01T19:50:38.685Z,25.47
2019-06-01T19:53:08.701Z,25.33
2019-06-01T19:55:37.243Z,25.24
2019-06-01T19:58:05.651Z,25.07
2019-06-01T20:00:34.036Z,24.93
2019-06-01T20:03:02.602Z,24.95
2019-06-01T20:05:30.999Z,24.92
2019-06-01T20:07:59.549Z,24.79
2019-06-01T20:10:27.941Z,24.69
2019-06-01T20:12:56.299Z,24.69
2019-06-01T20:15:24.638Z,24.79
2019-06-01T20:17:53.105Z,24.76
2019-06-01T20:20:21.590Z,24.60
2019-06-01T20:22:50.100Z,24.56
2019-06-01T20:25:20.115Z,24.58
2019-06-01T20:27:48.409Z,24.41
2019-06-01T20:30:17.975Z,24.30
2019-06-01T20:32:46.342Z,24.27
2019-06-01T20:35:15.966Z,24.22
2019-06-01T20:37:44.484Z,24.09
2019-06-01T20:40:14.108Z,24.07
2019-06-01T20:42:42.567Z,24.07
2019-06-01T20:45:12.542Z,24.01
2019-06-01T20:47:40.923Z,23.90
2019-06-01T20:50:10.145Z,23.80
2019-06-01T20:52:38.607Z,23.72
2019-06-01T20:55:07.852Z,23.60
2019-06-01T20:57:36.381Z,23.51
2019-06-01T21:00:11.135Z,23.44
2019-06-01T21:02:39.899Z,23.30
2019-06-01T21:05:08.677Z,22.30
2019-06-01T21:07:37.335Z,23.12
2019-06-01T21:10:07.386Z,23.13
2019-06-01T21:12:44.761Z,22.97
2019-06-01T21:15:06.396Z,22.98
2019-06-01T21:17:34.692Z,22.97
2019-06-01T21:20:05.247Z,22.99
2019-06-01T21:22:33.616Z,22.97
2019-06-01T21:25:02.052Z,22.89
2019-06-01T21:27:30.437Z,22.85
2019-06-01T21:29:58.719Z,22.67
2019-06-01T21:32:27.058Z,22.69
2019-06-01T21:34:55.427Z,22.70
2019-06-01T21:37:24.006Z,22.70
2019-06-01T21:39:52.379Z,22.62
2019-06-01T21:42:21.719Z,22.57
2019-06-01T21:44:50.190Z,22.54
2019-06-01T21:47:19.612Z,22.40
2019-06-01T21:49:48.019Z,22.36
2019-06-01T21:52:16.332Z,22.35
2019-06-01T21:54:44.742Z,22.30
2019-06-01T21:57:13.203Z,22.23
2019-06-01T21:59:41.811Z,22.18
2019-06-01T22:02:10.448Z,22.11
2019-06-01T22:04:38.988Z,22.09
2019-06-01T22:07:07.321Z,22.11
2019-06-01T22:09:35.640Z,22.07
2019-06-01T22:12:04.201Z,22.04
2019-06-01T22:14:32.504Z,21.97
2019-06-01T22:17:01.171Z,21.94
2019-06-01T22:19:29.588Z,21.93
2019-06-01T22:21:57.905Z,21.81
2019-06-01T22:24:26.202Z,21.81
2019-06-01T22:26:54.574Z,21.70
2019-06-01T22:29:24.312Z,21.68
2019-06-01T22:31:52.758Z,21.65
2019-06-01T22:34:21.129Z,21.62
2019-06-01T22:36:49.701Z,21.51
2019-06-01T22:39:19.372Z,21.43
2019-06-01T22:41:48.068Z,21.38
2019-06-01T22:44:16.393Z,21.35
2019-06-01T22:46:44.845Z,21.32
2019-06-01T22:49:13.247Z,21.31
2019-06-01T22:51:41.524Z,21.33
2019-06-01T22:54:09.867Z,21.24
2019-06-01T22:56:38.212Z,21.15
2019-06-01T22:59:06.603Z,21.22
2019-06-01T23:01:34.907Z,21.13
2019-06-01T23:04:03.228Z,21.10
2019-06-01T23:06:31.529Z,21.09
2019-06-01T23:08:59.860Z,21.09
2019-06-01T23:11:29.604Z,21.06
2019-06-01T23:13:58.147Z,21.01
2019-06-01T23:16:27.591Z,20.94
2019-06-01T23:18:55.976Z,20.82
2019-06-01T23:21:24.293Z,20.82
2019-06-01T23:23:52.619Z,20.70
2019-06-01T23:26:22.090Z,20.56
2019-06-01T23:28:50.624Z,20.51
2019-06-01T23:31:18.995Z,20.61
2019-06-01T23:33:47.381Z,20.61
2019-06-01T23:36:15.747Z,20.52
2019-06-01T23:38:44.064Z,20.47
2019-06-01T23:41:12.391Z,20.42
2019-06-01T23:43:40.739Z,20.41
2019-06-01T23:46:09.323Z,20.40
2019-06-01T23:48:37.608Z,20.35
2019-06-01T23:51:06.014Z,20.25
2019-06-01T23:53:34.411Z,20.18
2019-06-01T23:56:02.863Z,20.15
2019-06-01T23:58:32.519Z,20.10
